sensor_id;sensor_type;location;lat;lon;timestamp;P1;durP1;ratioP1;P2;durP2;ratioP2
38911;SDS011;28444;48.056;14.408;2023-02-15T00:01:47;45.95;;;19.42;;
38911;SDS011;28444;48.056;14.408;2023-02-15T00:04:15;34.60;;;17.17;;
38911;SDS011;28444;48.056;14.408;2023-02-15T00:06:46;43.65;;;21.33;;
38911;SDS011;28444;48.056;14.408;2023-02-15T00:09:13;36.80;;;18.13;;
38911;SDS011;28444;48.056;14.408;2023-02-15T00:11:39;34.72;;;17.25;;
38911;SDS011;28444;48.056;14.408;2023-02-15T00:16:38;46.17;;;18.70;;
38911;SDS011;28444;48.056;14.408;2023-02-15T00:19:06;38.33;;;18.35;;
38911;SDS011;28444;48.056;14.408;2023-02-15T00:21:33;38.13;;;17.27;;
38911;SDS011;28444;48.056;14.408;2023-02-15T00:24:02;40.63;;;18.17;;
38911;SDS011;28444;48.056;14.408;2023-02-15T00:26:30;37.78;;;17.20;;
38911;SDS011;28444;48.056;14.408;2023-02-15T00:28:57;47.08;;;17.70;;
38911;SDS011;28444;48.056;14.408;2023-02-15T00:31:25;47.90;;;16.95;;
38911;SDS011;28444;48.056;14.408;2023-02-15T00:34:04;59.45;;;19.60;;
38911;SDS011;28444;48.056;14.408;2023-02-15T00:36:41;58.50;;;17.25;;
38911;SDS011;28444;48.056;14.408;2023-02-15T00:39:09;50.72;;;18.80;;
38911;SDS011;28444;48.056;14.408;2023-02-15T00:41:36;47.35;;;17.75;;
38911;SDS011;28444;48.056;14.408;2023-02-15T00:44:03;42.20;;;17.17;;
38911;SDS011;28444;48.056;14.408;2023-02-15T00:46:30;46.30;;;18.00;;
38911;SDS011;28444;48.056;14.408;2023-02-15T00:48:57;38.28;;;17.42;;
38911;SDS011;28444;48.056;14.408;2023-02-15T00:51:24;48.38;;;17.33;;
38911;SDS011;28444;48.056;14.408;2023-02-15T00:53:51;44.53;;;18.17;;
38911;SDS011;28444;48.056;14.408;2023-02-15T00:56:18;52.83;;;18.15;;
38911;SDS011;28444;48.056;14.408;2023-02-15T00:58:45;48.22;;;17.27;;
38911;SDS011;28444;48.056;14.408;2023-02-15T01:01:13;51.22;;;17.85;;
38911;SDS011;28444;48.056;14.408;2023-02-15T01:03:42;63.08;;;19.92;;
38911;SDS011;28444;48.056;14.408;2023-02-15T01:06:09;62.88;;;19.13;;
38911;SDS011;28444;48.056;14.408;2023-02-15T01:08:37;59.45;;;20.33;;
38911;SDS011;28444;48.056;14.408;2023-02-15T01:11:05;47.42;;;19.23;;
38911;SDS011;28444;48.056;14.408;2023-02-15T01:13:36;51.20;;;20.17;;
38911;SDS011;28444;48.056;14.408;2023-02-15T01:16:03;62.30;;;19.27;;
38911;SDS011;28444;48.056;14.408;2023-02-15T01:18:30;48.20;;;17.45;;
38911;SDS011;28444;48.056;14.408;2023-02-15T01:20:58;66.38;;;19.02;;
38911;SDS011;28444;48.056;14.408;2023-02-15T01:23:25;51.67;;;20.42;;
38911;SDS011;28444;48.056;14.408;2023-02-15T01:25:52;66.25;;;19.25;;
38911;SDS011;28444;48.056;14.408;2023-02-15T01:28:18;62.40;;;20.17;;
38911;SDS011;28444;48.056;14.408;2023-02-15T01:30:45;57.78;;;19.58;;
38911;SDS011;28444;48.056;14.408;2023-02-15T01:33:12;58.35;;;21.65;;
38911;SDS011;28444;48.056;14.408;2023-02-15T01:35:44;71.00;;;18.48;;
38911;SDS011;28444;48.056;14.408;2023-02-15T01:38:13;52.75;;;19.90;;
38911;SDS011;28444;48.056;14.408;2023-02-15T01:40:40;69.00;;;20.33;;
38911;SDS011;28444;48.056;14.408;2023-02-15T01:43:11;59.53;;;20.08;;
38911;SDS011;28444;48.056;14.408;2023-02-15T01:45:38;46.42;;;18.20;;
38911;SDS011;28444;48.056;14.408;2023-02-15T01:48:14;60.38;;;19.30;;
38911;SDS011;28444;48.056;14.408;2023-02-15T01:50:50;55.65;;;20.50;;
38911;SDS011;28444;48.056;14.408;2023-02-15T01:53:30;53.83;;;19.10;;
38911;SDS011;28444;48.056;14.408;2023-02-15T01:56:17;47.38;;;19.13;;
38911;SDS011;28444;48.056;14.408;2023-02-15T01:58:48;46.85;;;17.63;;
38911;SDS011;28444;48.056;14.408;2023-02-15T02:01:17;63.47;;;21.65;;
38911;SDS011;28444;48.056;14.408;2023-02-15T02:03:49;47.03;;;18.90;;
38911;SDS011;28444;48.056;14.408;2023-02-15T02:06:46;49.03;;;20.38;;
38911;SDS011;28444;48.056;14.408;2023-02-15T02:09:16;57.95;;;19.05;;
38911;SDS011;28444;48.056;14.408;2023-02-15T02:11:44;44.65;;;19.80;;
38911;SDS011;28444;48.056;14.408;2023-02-15T02:14:12;39.45;;;17.88;;
38911;SDS011;28444;48.056;14.408;2023-02-15T02:16:42;42.50;;;18.60;;
38911;SDS011;28444;48.056;14.408;2023-02-15T02:23:50;46.13;;;19.25;;
38911;SDS011;28444;48.056;14.408;2023-02-15T02:26:48;59.60;;;21.35;;
38911;SDS011;28444;48.056;14.408;2023-02-15T02:32:46;44.22;;;18.15;;
38911;SDS011;28444;48.056;14.408;2023-02-15T02:42:15;51.70;;;19.58;;
38911;SDS011;28444;48.056;14.408;2023-02-15T02:45:30;49.28;;;17.33;;
38911;SDS011;28444;48.056;14.408;2023-02-15T02:47:40;60.80;;;19.13;;
38911;SDS011;28444;48.056;14.408;2023-02-15T02:50:15;52.15;;;18.73;;
38911;SDS011;28444;48.056;14.408;2023-02-15T02:52:44;52.20;;;20.63;;
38911;SDS011;28444;48.056;14.408;2023-02-15T02:55:17;51.22;;;19.95;;
38911;SDS011;28444;48.056;14.408;2023-02-15T03:00:52;45.97;;;18.58;;
38911;SDS011;28444;48.056;14.408;2023-02-15T03:03:29;40.58;;;18.58;;
38911;SDS011;28444;48.056;14.408;2023-02-15T03:05:59;48.80;;;18.65;;
38911;SDS011;28444;48.056;14.408;2023-02-15T03:08:30;51.55;;;18.92;;
38911;SDS011;28444;48.056;14.408;2023-02-15T03:11:02;48.33;;;18.90;;
38911;SDS011;28444;48.056;14.408;2023-02-15T03:13:30;47.70;;;18.17;;
38911;SDS011;28444;48.056;14.408;2023-02-15T03:15:58;56.85;;;19.88;;
38911;SDS011;28444;48.056;14.408;2023-02-15T03:18:48;60.22;;;20.25;;
38911;SDS011;28444;48.056;14.408;2023-02-15T03:23:56;49.50;;;19.42;;
38911;SDS011;28444;48.056;14.408;2023-02-15T03:26:27;48.47;;;18.58;;
38911;SDS011;28444;48.056;14.408;2023-02-15T03:28:56;55.25;;;20.40;;
38911;SDS011;28444;48.056;14.408;2023-02-15T03:31:28;54.72;;;20.73;;
38911;SDS011;28444;48.056;14.408;2023-02-15T03:33:59;59.47;;;19.92;;
38911;SDS011;28444;48.056;14.408;2023-02-15T03:36:41;46.38;;;18.80;;
38911;SDS011;28444;48.056;14.408;2023-02-15T03:39:34;44.85;;;19.73;;
38911;SDS011;28444;48.056;14.408;2023-02-15T03:42:09;48.40;;;18.23;;
38911;SDS011;28444;48.056;14.408;2023-02-15T03:44:53;55.25;;;22.83;;
38911;SDS011;28444;48.056;14.408;2023-02-15T03:47:31;51.47;;;19.17;;
38911;SDS011;28444;48.056;14.408;2023-02-15T03:50:02;49.13;;;18.67;;
38911;SDS011;28444;48.056;14.408;2023-02-15T03:53:03;55.25;;;18.25;;
38911;SDS011;28444;48.056;14.408;2023-02-15T03:55:34;52.90;;;20.42;;
38911;SDS011;28444;48.056;14.408;2023-02-15T03:58:02;51.05;;;19.83;;
38911;SDS011;28444;48.056;14.408;2023-02-15T04:00:57;53.05;;;22.98;;
38911;SDS011;28444;48.056;14.408;2023-02-15T04:03:47;52.90;;;20.90;;
38911;SDS011;28444;48.056;14.408;2023-02-15T04:06:20;43.03;;;18.75;;
38911;SDS011;28444;48.056;14.408;2023-02-15T04:08:47;50.72;;;19.25;;
38911;SDS011;28444;48.056;14.408;2023-02-15T04:11:32;49.00;;;18.42;;
38911;SDS011;28444;48.056;14.408;2023-02-15T04:13:59;44.58;;;20.50;;
38911;SDS011;28444;48.056;14.408;2023-02-15T04:16:45;43.75;;;17.80;;
38911;SDS011;28444;48.056;14.408;2023-02-15T04:19:12;43.47;;;18.15;;
38911;SDS011;28444;48.056;14.408;2023-02-15T04:21:57;59.17;;;18.77;;
38911;SDS011;28444;48.056;14.408;2023-02-15T04:24:42;49.85;;;19.27;;
38911;SDS011;28444;48.056;14.408;2023-02-15T04:27:28;49.40;;;19.23;;
38911;SDS011;28444;48.056;14.408;2023-02-15T04:29:55;51.47;;;18.45;;
38911;SDS011;28444;48.056;14.408;2023-02-15T04:32:21;56.40;;;20.23;;
38911;SDS011;28444;48.056;14.408;2023-02-15T04:34:48;43.70;;;18.67;;
38911;SDS011;28444;48.056;14.408;2023-02-15T04:37:15;50.20;;;18.75;;
38911;SDS011;28444;48.056;14.408;2023-02-15T04:39:41;46.40;;;21.08;;
38911;SDS011;28444;48.056;14.408;2023-02-15T04:42:08;50.58;;;18.27;;
38911;SDS011;28444;48.056;14.408;2023-02-15T04:44:35;39.65;;;16.77;;
38911;SDS011;28444;48.056;14.408;2023-02-15T04:47:01;65.07;;;20.70;;
38911;SDS011;28444;48.056;14.408;2023-02-15T04:49:28;273.15;;;78.05;;
38911;SDS011;28444;48.056;14.408;2023-02-15T04:51:55;428.05;;;140.18;;
38911;SDS011;28444;48.056;14.408;2023-02-15T04:54:22;497.80;;;212.02;;
38911;SDS011;28444;48.056;14.408;2023-02-15T04:56:48;190.38;;;78.28;;
38911;SDS011;28444;48.056;14.408;2023-02-15T04:59:15;119.07;;;50.47;;
38911;SDS011;28444;48.056;14.408;2023-02-15T05:01:42;108.43;;;40.05;;
38911;SDS011;28444;48.056;14.408;2023-02-15T05:04:08;101.88;;;35.30;;
38911;SDS011;28444;48.056;14.408;2023-02-15T05:06:35;80.05;;;32.92;;
38911;SDS011;28444;48.056;14.408;2023-02-15T05:09:02;65.05;;;22.38;;
38911;SDS011;28444;48.056;14.408;2023-02-15T05:11:29;64.03;;;24.05;;
38911;SDS011;28444;48.056;14.408;2023-02-15T05:13:55;57.13;;;22.95;;
38911;SDS011;28444;48.056;14.408;2023-02-15T05:16:22;56.95;;;22.70;;
38911;SDS011;28444;48.056;14.408;2023-02-15T05:18:49;54.22;;;19.05;;
38911;SDS011;28444;48.056;14.408;2023-02-15T05:21:15;49.88;;;18.95;;
38911;SDS011;28444;48.056;14.408;2023-02-15T05:23:42;51.42;;;18.27;;
38911;SDS011;28444;48.056;14.408;2023-02-15T05:26:12;50.53;;;18.23;;
38911;SDS011;28444;48.056;14.408;2023-02-15T05:29:02;42.90;;;17.98;;
38911;SDS011;28444;48.056;14.408;2023-02-15T05:31:30;51.78;;;19.42;;
38911;SDS011;28444;48.056;14.408;2023-02-15T05:33:57;58.28;;;20.35;;
38911;SDS011;28444;48.056;14.408;2023-02-15T05:36:24;54.72;;;18.92;;
38911;SDS011;28444;48.056;14.408;2023-02-15T05:38:51;48.65;;;18.73;;
38911;SDS011;28444;48.056;14.408;2023-02-15T05:41:17;53.75;;;19.65;;
38911;SDS011;28444;48.056;14.408;2023-02-15T05:43:44;43.65;;;18.20;;
38911;SDS011;28444;48.056;14.408;2023-02-15T05:46:11;50.90;;;18.67;;
38911;SDS011;28444;48.056;14.408;2023-02-15T05:48:38;48.40;;;18.48;;
38911;SDS011;28444;48.056;14.408;2023-02-15T05:51:06;55.45;;;20.15;;
38911;SDS011;28444;48.056;14.408;2023-02-15T05:53:35;62.05;;;20.70;;
38911;SDS011;28444;48.056;14.408;2023-02-15T05:56:05;61.17;;;19.15;;
38911;SDS011;28444;48.056;14.408;2023-02-15T05:58:36;61.67;;;20.33;;
38911;SDS011;28444;48.056;14.408;2023-02-15T06:01:08;60.50;;;20.20;;
38911;SDS011;28444;48.056;14.408;2023-02-15T06:03:36;54.05;;;20.92;;
38911;SDS011;28444;48.056;14.408;2023-02-15T06:06:03;61.38;;;20.20;;
38911;SDS011;28444;48.056;14.408;2023-02-15T06:08:31;48.20;;;19.85;;
38911;SDS011;28444;48.056;14.408;2023-02-15T06:10:58;53.28;;;22.15;;
38911;SDS011;28444;48.056;14.408;2023-02-15T06:13:26;65.22;;;21.25;;
38911;SDS011;28444;48.056;14.408;2023-02-15T06:15:53;50.05;;;19.75;;
38911;SDS011;28444;48.056;14.408;2023-02-15T06:18:20;66.45;;;21.88;;
38911;SDS011;28444;48.056;14.408;2023-02-15T06:20:46;49.90;;;21.15;;
38911;SDS011;28444;48.056;14.408;2023-02-15T06:23:13;56.40;;;22.60;;
38911;SDS011;28444;48.056;14.408;2023-02-15T06:25:41;50.10;;;20.77;;
38911;SDS011;28444;48.056;14.408;2023-02-15T06:28:08;57.00;;;23.00;;
38911;SDS011;28444;48.056;14.408;2023-02-15T06:30:34;53.60;;;19.33;;
38911;SDS011;28444;48.056;14.408;2023-02-15T06:33:01;51.03;;;19.55;;
38911;SDS011;28444;48.056;14.408;2023-02-15T06:35:28;64.13;;;21.15;;
38911;SDS011;28444;48.056;14.408;2023-02-15T06:37:54;52.20;;;21.52;;
38911;SDS011;28444;48.056;14.408;2023-02-15T06:40:21;50.55;;;19.83;;
38911;SDS011;28444;48.056;14.408;2023-02-15T06:42:48;60.17;;;20.95;;
38911;SDS011;28444;48.056;14.408;2023-02-15T06:45:14;54.55;;;20.90;;
38911;SDS011;28444;48.056;14.408;2023-02-15T06:47:41;55.60;;;18.92;;
38911;SDS011;28444;48.056;14.408;2023-02-15T06:50:08;46.33;;;19.60;;
38911;SDS011;28444;48.056;14.408;2023-02-15T06:52:35;52.13;;;19.52;;
38911;SDS011;28444;48.056;14.408;2023-02-15T06:55:02;53.90;;;18.88;;
38911;SDS011;28444;48.056;14.408;2023-02-15T06:57:29;47.22;;;18.63;;
38911;SDS011;28444;48.056;14.408;2023-02-15T06:59:56;55.40;;;19.90;;
38911;SDS011;28444;48.056;14.408;2023-02-15T07:02:24;53.13;;;21.90;;
38911;SDS011;28444;48.056;14.408;2023-02-15T07:04:51;53.47;;;19.67;;
38911;SDS011;28444;48.056;14.408;2023-02-15T07:07:18;50.45;;;20.25;;
38911;SDS011;28444;48.056;14.408;2023-02-15T07:09:44;46.47;;;19.13;;
38911;SDS011;28444;48.056;14.408;2023-02-15T07:12:11;45.75;;;19.27;;
38911;SDS011;28444;48.056;14.408;2023-02-15T07:14:57;51.70;;;19.60;;
38911;SDS011;28444;48.056;14.408;2023-02-15T07:17:24;51.05;;;19.48;;
38911;SDS011;28444;48.056;14.408;2023-02-15T07:20:06;68.30;;;19.20;;
38911;SDS011;28444;48.056;14.408;2023-02-15T07:22:35;48.72;;;18.85;;
38911;SDS011;28444;48.056;14.408;2023-02-15T07:25:03;61.08;;;19.90;;
38911;SDS011;28444;48.056;14.408;2023-02-15T07:27:31;51.15;;;21.77;;
38911;SDS011;28444;48.056;14.408;2023-02-15T07:29:58;47.22;;;20.73;;
38911;SDS011;28444;48.056;14.408;2023-02-15T07:32:29;58.95;;;23.90;;
38911;SDS011;28444;48.056;14.408;2023-02-15T07:34:57;48.90;;;20.92;;
38911;SDS011;28444;48.056;14.408;2023-02-15T07:37:24;50.53;;;20.60;;
38911;SDS011;28444;48.056;14.408;2023-02-15T07:39:51;44.72;;;19.33;;
38911;SDS011;28444;48.056;14.408;2023-02-15T07:42:18;49.45;;;19.48;;
38911;SDS011;28444;48.056;14.408;2023-02-15T07:44:46;53.17;;;20.75;;
38911;SDS011;28444;48.056;14.408;2023-02-15T07:47:12;49.65;;;20.48;;
38911;SDS011;28444;48.056;14.408;2023-02-15T07:49:40;49.75;;;22.05;;
38911;SDS011;28444;48.056;14.408;2023-02-15T07:52:07;59.45;;;25.35;;
38911;SDS011;28444;48.056;14.408;2023-02-15T07:54:39;43.22;;;19.55;;
38911;SDS011;28444;48.056;14.408;2023-02-15T07:57:06;49.67;;;22.45;;
38911;SDS011;28444;48.056;14.408;2023-02-15T07:59:32;51.95;;;24.10;;
38911;SDS011;28444;48.056;14.408;2023-02-15T08:01:59;47.42;;;20.90;;
38911;SDS011;28444;48.056;14.408;2023-02-15T08:04:26;48.45;;;18.27;;
38911;SDS011;28444;48.056;14.408;2023-02-15T08:06:53;47.83;;;20.58;;
38911;SDS011;28444;48.056;14.408;2023-02-15T08:09:20;45.83;;;20.30;;
38911;SDS011;28444;48.056;14.408;2023-02-15T08:11:47;49.17;;;20.67;;
38911;SDS011;28444;48.056;14.408;2023-02-15T08:14:15;44.75;;;19.02;;
38911;SDS011;28444;48.056;14.408;2023-02-15T08:16:45;50.15;;;20.08;;
38911;SDS011;28444;48.056;14.408;2023-02-15T08:19:17;52.88;;;22.38;;
38911;SDS011;28444;48.056;14.408;2023-02-15T08:21:55;51.65;;;19.27;;
38911;SDS011;28444;48.056;14.408;2023-02-15T08:24:25;55.25;;;22.35;;
38911;SDS011;28444;48.056;14.408;2023-02-15T08:26:53;44.45;;;17.63;;
38911;SDS011;28444;48.056;14.408;2023-02-15T08:29:21;40.80;;;17.85;;
38911;SDS011;28444;48.056;14.408;2023-02-15T08:31:50;40.17;;;19.10;;
38911;SDS011;28444;48.056;14.408;2023-02-15T08:34:19;37.55;;;16.80;;
38911;SDS011;28444;48.056;14.408;2023-02-15T08:36:47;39.65;;;17.35;;
38911;SDS011;28444;48.056;14.408;2023-02-15T08:39:14;38.90;;;16.27;;
38911;SDS011;28444;48.056;14.408;2023-02-15T08:41:42;46.13;;;18.73;;
38911;SDS011;28444;48.056;14.408;2023-02-15T08:44:10;45.35;;;17.48;;
38911;SDS011;28444;48.056;14.408;2023-02-15T08:46:38;44.75;;;15.70;;
38911;SDS011;28444;48.056;14.408;2023-02-15T08:49:08;36.30;;;15.27;;
38911;SDS011;28444;48.056;14.408;2023-02-15T08:51:36;43.78;;;17.88;;
38911;SDS011;28444;48.056;14.408;2023-02-15T08:54:06;38.20;;;17.15;;
38911;SDS011;28444;48.056;14.408;2023-02-15T08:56:39;36.85;;;16.27;;
38911;SDS011;28444;48.056;14.408;2023-02-15T08:59:10;40.58;;;15.55;;
38911;SDS011;28444;48.056;14.408;2023-02-15T09:01:42;41.00;;;16.08;;
38911;SDS011;28444;48.056;14.408;2023-02-15T09:04:10;48.08;;;17.02;;
38911;SDS011;28444;48.056;14.408;2023-02-15T09:06:37;40.00;;;17.65;;
38911;SDS011;28444;48.056;14.408;2023-02-15T09:09:05;55.50;;;19.70;;
38911;SDS011;28444;48.056;14.408;2023-02-15T09:11:36;38.17;;;15.45;;
38911;SDS011;28444;48.056;14.408;2023-02-15T09:14:10;46.92;;;17.20;;
38911;SDS011;28444;48.056;14.408;2023-02-15T09:16:42;40.38;;;16.38;;
38911;SDS011;28444;48.056;14.408;2023-02-15T09:19:15;48.35;;;17.05;;
38911;SDS011;28444;48.056;14.408;2023-02-15T09:21:43;40.72;;;16.83;;
38911;SDS011;28444;48.056;14.408;2023-02-15T09:24:11;42.92;;;17.48;;
38911;SDS011;28444;48.056;14.408;2023-02-15T09:26:40;40.00;;;17.85;;
38911;SDS011;28444;48.056;14.408;2023-02-15T09:29:09;37.60;;;15.98;;
38911;SDS011;28444;48.056;14.408;2023-02-15T09:31:37;39.85;;;17.17;;
38911;SDS011;28444;48.056;14.408;2023-02-15T09:34:11;48.17;;;18.40;;
38911;SDS011;28444;48.056;14.408;2023-02-15T09:36:40;43.33;;;18.33;;
38911;SDS011;28444;48.056;14.408;2023-02-15T09:39:09;36.38;;;15.25;;
38911;SDS011;28444;48.056;14.408;2023-02-15T09:42:24;43.10;;;17.13;;
38911;SDS011;28444;48.056;14.408;2023-02-15T09:46:26;47.42;;;17.17;;
38911;SDS011;28444;48.056;14.408;2023-02-15T09:48:12;42.88;;;17.80;;
38911;SDS011;28444;48.056;14.408;2023-02-15T09:54:22;42.40;;;17.15;;
38911;SDS011;28444;48.056;14.408;2023-02-15T09:56:39;43.58;;;17.25;;
38911;SDS011;28444;48.056;14.408;2023-02-15T09:59:39;36.88;;;15.15;;
38911;SDS011;28444;48.056;14.408;2023-02-15T10:02:22;35.72;;;16.75;;
38911;SDS011;28444;48.056;14.408;2023-02-15T10:20:58;44.15;;;17.17;;
38911;SDS011;28444;48.056;14.408;2023-02-15T10:27:18;38.20;;;14.82;;
38911;SDS011;28444;48.056;14.408;2023-02-15T10:30:13;39.67;;;16.98;;
38911;SDS011;28444;48.056;14.408;2023-02-15T10:33:04;35.88;;;16.70;;
38911;SDS011;28444;48.056;14.408;2023-02-15T10:36:07;35.45;;;14.40;;
38911;SDS011;28444;48.056;14.408;2023-02-15T10:39:02;44.28;;;16.25;;
38911;SDS011;28444;48.056;14.408;2023-02-15T10:41:53;33.92;;;15.13;;
38911;SDS011;28444;48.056;14.408;2023-02-15T10:44:44;32.72;;;12.63;;
38911;SDS011;28444;48.056;14.408;2023-02-15T10:53:23;31.55;;;15.05;;
38911;SDS011;28444;48.056;14.408;2023-02-15T10:56:07;36.13;;;15.13;;
38911;SDS011;28444;48.056;14.408;2023-02-15T10:59:04;34.50;;;14.90;;
38911;SDS011;28444;48.056;14.408;2023-02-15T11:01:53;33.00;;;14.52;;
38911;SDS011;28444;48.056;14.408;2023-02-15T11:07:22;33.72;;;13.77;;
38911;SDS011;28444;48.056;14.408;2023-02-15T11:09:56;38.80;;;14.43;;
38911;SDS011;28444;48.056;14.408;2023-02-15T11:12:31;35.65;;;14.70;;
38911;SDS011;28444;48.056;14.408;2023-02-15T11:17:50;39.92;;;17.50;;
38911;SDS011;28444;48.056;14.408;2023-02-15T11:20:27;35.92;;;16.55;;
38911;SDS011;28444;48.056;14.408;2023-02-15T11:22:57;36.70;;;14.77;;
38911;SDS011;28444;48.056;14.408;2023-02-15T11:25:33;35.70;;;15.32;;
38911;SDS011;28444;48.056;14.408;2023-02-15T11:28:03;30.65;;;14.05;;
38911;SDS011;28444;48.056;14.408;2023-02-15T11:30:50;35.75;;;14.88;;
38911;SDS011;28444;48.056;14.408;2023-02-15T11:33:29;32.85;;;14.43;;
38911;SDS011;28444;48.056;14.408;2023-02-15T11:36:09;41.15;;;14.75;;
38911;SDS011;28444;48.056;14.408;2023-02-15T11:38:42;35.65;;;15.10;;
38911;SDS011;28444;48.056;14.408;2023-02-15T11:41:15;33.83;;;14.88;;
38911;SDS011;28444;48.056;14.408;2023-02-15T11:46:19;40.90;;;18.33;;
38911;SDS011;28444;48.056;14.408;2023-02-15T11:48:47;42.90;;;18.40;;
38911;SDS011;28444;48.056;14.408;2023-02-15T11:51:15;36.65;;;15.30;;
38911;SDS011;28444;48.056;14.408;2023-02-15T11:53:48;34.22;;;16.73;;
38911;SDS011;28444;48.056;14.408;2023-02-15T11:56:16;38.35;;;16.08;;
38911;SDS011;28444;48.056;14.408;2023-02-15T11:58:50;39.03;;;17.10;;
38911;SDS011;28444;48.056;14.408;2023-02-15T12:01:43;33.90;;;16.50;;
38911;SDS011;28444;48.056;14.408;2023-02-15T12:10:19;39.75;;;16.60;;
38911;SDS011;28444;48.056;14.408;2023-02-15T12:15:50;37.40;;;17.08;;
38911;SDS011;28444;48.056;14.408;2023-02-15T12:21:29;35.30;;;16.52;;
38911;SDS011;28444;48.056;14.408;2023-02-15T12:24:20;39.38;;;16.30;;
38911;SDS011;28444;48.056;14.408;2023-02-15T12:27:02;43.00;;;16.80;;
38911;SDS011;28444;48.056;14.408;2023-02-15T12:32:05;33.85;;;15.07;;
38911;SDS011;28444;48.056;14.408;2023-02-15T12:34:42;48.50;;;19.08;;
38911;SDS011;28444;48.056;14.408;2023-02-15T12:37:21;49.80;;;18.65;;
38911;SDS011;28444;48.056;14.408;2023-02-15T12:39:51;35.67;;;15.80;;
38911;SDS011;28444;48.056;14.408;2023-02-15T12:42:23;38.80;;;18.42;;
38911;SDS011;28444;48.056;14.408;2023-02-15T12:45:03;40.03;;;16.15;;
38911;SDS011;28444;48.056;14.408;2023-02-15T12:47:45;36.75;;;17.40;;
38911;SDS011;28444;48.056;14.408;2023-02-15T12:50:22;35.92;;;15.48;;
38911;SDS011;28444;48.056;14.408;2023-02-15T12:53:02;41.92;;;16.20;;
38911;SDS011;28444;48.056;14.408;2023-02-15T12:55:55;39.42;;;16.83;;
38911;SDS011;28444;48.056;14.408;2023-02-15T12:58:27;39.17;;;17.17;;
38911;SDS011;28444;48.056;14.408;2023-02-15T13:06:48;37.97;;;16.75;;
38911;SDS011;28444;48.056;14.408;2023-02-15T13:09:20;41.50;;;17.00;;
38911;SDS011;28444;48.056;14.408;2023-02-15T13:11:51;38.22;;;16.80;;
38911;SDS011;28444;48.056;14.408;2023-02-15T13:14:19;37.97;;;16.10;;
38911;SDS011;28444;48.056;14.408;2023-02-15T13:16:50;36.95;;;16.50;;
38911;SDS011;28444;48.056;14.408;2023-02-15T13:19:22;41.03;;;17.42;;
38911;SDS011;28444;48.056;14.408;2023-02-15T13:22:15;35.72;;;15.50;;
38911;SDS011;28444;48.056;14.408;2023-02-15T13:24:47;43.10;;;17.92;;
38911;SDS011;28444;48.056;14.408;2023-02-15T13:27:17;38.17;;;17.42;;
38911;SDS011;28444;48.056;14.408;2023-02-15T13:29:48;44.72;;;18.13;;
38911;SDS011;28444;48.056;14.408;2023-02-15T13:32:30;35.65;;;16.98;;
38911;SDS011;28444;48.056;14.408;2023-02-15T13:35:16;41.15;;;16.15;;
38911;SDS011;28444;48.056;14.408;2023-02-15T13:46:29;38.72;;;15.85;;
38911;SDS011;28444;48.056;14.408;2023-02-15T13:49:39;42.05;;;16.77;;
38911;SDS011;28444;48.056;14.408;2023-02-15T13:52:23;36.55;;;16.77;;
38911;SDS011;28444;48.056;14.408;2023-02-15T13:55:40;40.47;;;18.88;;
38911;SDS011;28444;48.056;14.408;2023-02-15T14:10:17;38.95;;;17.90;;
38911;SDS011;28444;48.056;14.408;2023-02-15T14:13:27;42.15;;;19.42;;
38911;SDS011;28444;48.056;14.408;2023-02-15T14:19:11;41.53;;;18.02;;
38911;SDS011;28444;48.056;14.408;2023-02-15T14:22:01;41.63;;;18.80;;
38911;SDS011;28444;48.056;14.408;2023-02-15T14:25:11;48.13;;;20.15;;
38911;SDS011;28444;48.056;14.408;2023-02-15T14:30:49;44.30;;;19.58;;
38911;SDS011;28444;48.056;14.408;2023-02-15T14:36:11;39.47;;;18.40;;
38911;SDS011;28444;48.056;14.408;2023-02-15T14:43:23;45.72;;;17.60;;
38911;SDS011;28444;48.056;14.408;2023-02-15T14:44:38;44.47;;;19.88;;
38911;SDS011;28444;48.056;14.408;2023-02-15T14:49:56;39.22;;;17.13;;
38911;SDS011;28444;48.056;14.408;2023-02-15T14:52:23;46.35;;;20.70;;
38911;SDS011;28444;48.056;14.408;2023-02-15T14:54:52;41.42;;;20.08;;
38911;SDS011;28444;48.056;14.408;2023-02-15T14:57:21;43.05;;;19.20;;
38911;SDS011;28444;48.056;14.408;2023-02-15T15:02:40;48.20;;;19.65;;
38911;SDS011;28444;48.056;14.408;2023-02-15T15:05:19;43.00;;;19.23;;
38911;SDS011;28444;48.056;14.408;2023-02-15T15:07:54;39.45;;;18.67;;
38911;SDS011;28444;48.056;14.408;2023-02-15T15:10:40;42.80;;;18.40;;
38911;SDS011;28444;48.056;14.408;2023-02-15T15:22:24;44.28;;;19.73;;
38911;SDS011;28444;48.056;14.408;2023-02-15T15:24:56;41.72;;;18.52;;
38911;SDS011;28444;48.056;14.408;2023-02-15T15:31:02;45.53;;;20.10;;
38911;SDS011;28444;48.056;14.408;2023-02-15T15:33:45;45.90;;;19.23;;
38911;SDS011;28444;48.056;14.408;2023-02-15T15:36:29;48.40;;;20.08;;
38911;SDS011;28444;48.056;14.408;2023-02-15T15:42:32;46.47;;;18.65;;
38911;SDS011;28444;48.056;14.408;2023-02-15T15:48:27;57.47;;;18.38;;
38911;SDS011;28444;48.056;14.408;2023-02-15T15:51:21;52.03;;;20.52;;
38911;SDS011;28444;48.056;14.408;2023-02-15T15:53:55;41.15;;;19.75;;
38911;SDS011;28444;48.056;14.408;2023-02-15T15:56:27;46.10;;;19.80;;
38911;SDS011;28444;48.056;14.408;2023-02-15T15:59:00;51.63;;;20.65;;
38911;SDS011;28444;48.056;14.408;2023-02-15T16:01:39;41.95;;;18.35;;
38911;SDS011;28444;48.056;14.408;2023-02-15T16:04:28;49.05;;;19.92;;
38911;SDS011;28444;48.056;14.408;2023-02-15T16:06:58;48.22;;;19.77;;
38911;SDS011;28444;48.056;14.408;2023-02-15T16:10:01;47.78;;;21.08;;
38911;SDS011;28444;48.056;14.408;2023-02-15T16:12:33;50.25;;;20.75;;
38911;SDS011;28444;48.056;14.408;2023-02-15T16:15:03;42.95;;;18.90;;
38911;SDS011;28444;48.056;14.408;2023-02-15T16:17:40;47.88;;;20.02;;
38911;SDS011;28444;48.056;14.408;2023-02-15T16:20:15;43.95;;;19.60;;
38911;SDS011;28444;48.056;14.408;2023-02-15T16:22:52;47.05;;;21.13;;
38911;SDS011;28444;48.056;14.408;2023-02-15T16:25:35;48.78;;;20.27;;
38911;SDS011;28444;48.056;14.408;2023-02-15T16:28:24;49.28;;;19.67;;
38911;SDS011;28444;48.056;14.408;2023-02-15T16:33:54;60.92;;;23.30;;
38911;SDS011;28444;48.056;14.408;2023-02-15T16:36:22;48.08;;;21.92;;
38911;SDS011;28444;48.056;14.408;2023-02-15T16:41:45;53.15;;;23.25;;
38911;SDS011;28444;48.056;14.408;2023-02-15T16:44:16;51.10;;;22.88;;
38911;SDS011;28444;48.056;14.408;2023-02-15T16:46:49;53.25;;;23.05;;
38911;SDS011;28444;48.056;14.408;2023-02-15T16:49:21;52.20;;;22.95;;
38911;SDS011;28444;48.056;14.408;2023-02-15T16:52:00;50.33;;;22.25;;
38911;SDS011;28444;48.056;14.408;2023-02-15T16:54:31;57.63;;;24.13;;
38911;SDS011;28444;48.056;14.408;2023-02-15T16:56:59;59.40;;;23.10;;
38911;SDS011;28444;48.056;14.408;2023-02-15T16:59:37;58.40;;;25.20;;
38911;SDS011;28444;48.056;14.408;2023-02-15T17:02:06;49.78;;;22.45;;
38911;SDS011;28444;48.056;14.408;2023-02-15T17:08:04;56.08;;;23.70;;
38911;SDS011;28444;48.056;14.408;2023-02-15T17:10:44;66.20;;;25.98;;
38911;SDS011;28444;48.056;14.408;2023-02-15T17:13:28;50.28;;;23.20;;